createdAt,value
2023-04-07T00:01:29.361Z,0.90
2023-04-07T00:04:26.545Z,0.80
2023-04-07T00:07:23.427Z,0.80
2023-04-07T00:10:20.339Z,0.90
2023-04-07T00:13:17.144Z,0.90
2023-04-07T00:16:14.022Z,0.90
2023-04-07T00:19:10.967Z,0.80
2023-04-07T00:22:07.908Z,0.70
2023-04-07T00:25:05.462Z,0.80
2023-04-07T00:28:02.349Z,0.60
2023-04-07T00:30:59.211Z,0.60
2023-04-07T00:33:57.789Z,0.50
2023-04-07T00:36:54.822Z,0.50
2023-04-07T00:39:52.274Z,0.40
2023-04-07T00:42:49.102Z,0.40
2023-04-07T00:45:46.261Z,0.40
2023-04-07T00:48:43.313Z,0.40
2023-04-07T00:51:40.509Z,0.30
2023-04-07T00:54:39.633Z,0.30
2023-04-07T00:57:36.527Z,0.30
2023-04-07T01:00:50.024Z,0.20
2023-04-07T01:04:01.026Z,0.20
2023-04-07T01:07:06.905Z,0.20
2023-04-07T01:10:06.870Z,0.20
2023-04-07T01:13:11.840Z,0.30
2023-04-07T01:16:16.859Z,0.30
2023-04-07T01:19:33.715Z,0.20
2023-04-07T01:22:40.545Z,0.10
2023-04-07T01:25:59.061Z,0.00
2023-04-07T01:29:19.987Z,0.00
2023-04-07T01:32:20.542Z,-0.10
2023-04-07T01:35:19.211Z,0.00
2023-04-07T01:38:17.336Z,-0.10
2023-04-07T01:41:15.952Z,-0.10
2023-04-07T01:44:14.613Z,-0.20
2023-04-07T01:47:12.846Z,-0.20
2023-04-07T01:50:12.635Z,-0.20
2023-04-07T01:53:11.177Z,-0.30
2023-04-07T01:56:08.137Z,-0.20
2023-04-07T01:59:05.033Z,-0.30
2023-04-07T02:02:02.140Z,-0.20
2023-04-07T02:05:05.564Z,-0.10
2023-04-07T02:08:08.165Z,-0.20
2023-04-07T02:11:07.900Z,-0.10
2023-04-07T02:14:07.375Z,-0.20
2023-04-07T02:17:05.944Z,-0.30
2023-04-07T02:20:06.720Z,-0.40
2023-04-07T02:23:04.091Z,-0.40
2023-04-07T02:26:01.047Z,-0.40
2023-04-07T02:28:57.890Z,-0.40
2023-04-07T02:31:56.027Z,-0.40
2023-04-07T02:34:52.936Z,-0.40
2023-04-07T02:37:50.567Z,-0.40
2023-04-07T02:40:47.424Z,-0.50
2023-04-07T02:43:44.249Z,-0.50
2023-04-07T02:46:41.436Z,-0.60
2023-04-07T02:49:38.296Z,-0.60
2023-04-07T02:52:35.414Z,-0.50
2023-04-07T02:55:32.341Z,-0.50
2023-04-07T02:58:29.226Z,-0.60
2023-04-07T03:01:26.449Z,-0.50
2023-04-07T03:04:23.554Z,-0.50
2023-04-07T03:07:20.692Z,-0.60
2023-04-07T03:10:17.694Z,-0.60
2023-04-07T03:13:16.543Z,-0.60
2023-04-07T03:16:13.362Z,-0.50
2023-04-07T03:19:10.874Z,-0.60
2023-04-07T03:22:07.807Z,-0.60
2023-04-07T03:25:05.426Z,-0.60
2023-04-07T03:28:02.268Z,-0.70
2023-04-07T03:30:59.105Z,-0.70
2023-04-07T03:33:55.958Z,-0.70
2023-04-07T03:36:52.855Z,-0.70
2023-04-07T03:39:50.882Z,-0.70
2023-04-07T03:42:48.992Z,-0.70
2023-04-07T03:45:46.767Z,-0.70
2023-04-07T03:48:43.650Z,-0.80
2023-04-07T03:51:40.557Z,-0.80
2023-04-07T03:54:37.391Z,-0.80
2023-04-07T03:57:34.241Z,-0.80
2023-04-07T04:00:33.212Z,-0.80
2023-04-07T04:03:30.323Z,-0.80
2023-04-07T04:06:27.452Z,-0.90
2023-04-07T04:09:24.277Z,-0.90
2023-04-07T04:12:21.169Z,-0.90
2023-04-07T04:15:17.975Z,-1.00
2023-04-07T04:18:14.853Z,-0.90
2023-04-07T04:21:11.811Z,-1.00
2023-04-07T04:24:08.686Z,-1.00
2023-04-07T04:27:05.772Z,-1.00
2023-04-07T04:30:03.557Z,-1.00
2023-04-07T04:33:00.547Z,-1.00
2023-04-07T04:35:57.513Z,-1.00
2023-04-07T04:38:54.313Z,-1.10
2023-04-07T04:41:51.233Z,-1.10
2023-04-07T04:44:48.062Z,-1.00
2023-04-07T04:47:44.931Z,-1.00
2023-04-07T04:50:43.164Z,-1.00
2023-04-07T04:53:39.966Z,-1.00
2023-04-07T04:56:36.842Z,-1.00
2023-04-07T04:59:34.527Z,-0.90
2023-04-07T05:02:31.996Z,-1.00
2023-04-07T05:05:29.229Z,-1.00
2023-04-07T05:08:26.057Z,-1.00
2023-04-07T05:11:22.886Z,-1.00
2023-04-07T05:14:19.728Z,-0.90
2023-04-07T05:17:16.637Z,-0.90
2023-04-07T05:20:17.221Z,-0.90
2023-04-07T05:23:16.611Z,-0.80
2023-04-07T05:26:13.455Z,-0.80
2023-04-07T05:29:10.425Z,-0.80
2023-04-07T05:32:07.375Z,-0.80
2023-04-07T05:35:04.436Z,-0.80
2023-04-07T05:38:01.617Z,-0.70
2023-04-07T05:40:58.460Z,-0.60
2023-04-07T05:43:55.368Z,-0.60
2023-04-07T05:46:52.318Z,-0.60
2023-04-07T05:49:49.211Z,-0.50
2023-04-07T05:52:46.401Z,-0.40
2023-04-07T05:55:43.663Z,-0.40
2023-04-07T05:58:40.538Z,-0.30
2023-04-07T06:01:37.391Z,-0.30
2023-04-07T06:04:35.443Z,-0.10
2023-04-07T06:07:32.304Z,-0.10
2023-04-07T06:10:29.172Z,0.00
2023-04-07T06:13:26.241Z,0.20
2023-04-07T06:16:23.134Z,0.20
2023-04-07T06:19:19.974Z,0.40
2023-04-07T06:22:16.862Z,0.40
2023-04-07T06:25:13.714Z,0.50
2023-04-07T06:28:10.596Z,0.70
2023-04-07T06:31:09.163Z,0.70
2023-04-07T06:34:06.079Z,0.80
2023-04-07T06:37:05.387Z,0.90
2023-04-07T06:40:02.370Z,1.00
2023-04-07T06:42:59.271Z,1.10
2023-04-07T06:45:56.483Z,1.10
2023-04-07T06:48:53.436Z,1.30
2023-04-07T06:51:50.572Z,1.30
2023-04-07T06:54:47.450Z,1.50
2023-04-07T06:57:44.247Z,1.60
2023-04-07T07:00:41.102Z,1.80
2023-04-07T07:03:38.064Z,1.90
2023-04-07T07:06:35.207Z,2.00
2023-04-07T07:09:32.036Z,2.10
2023-04-07T07:12:28.902Z,2.20
2023-04-07T07:15:25.805Z,2.30
2023-04-07T07:18:22.724Z,2.50
2023-04-07T07:21:21.064Z,2.60
2023-04-07T07:24:17.894Z,2.70
2023-04-07T07:27:14.692Z,2.80
2023-04-07T07:30:11.849Z,2.90
2023-04-07T07:33:08.773Z,3.20
2023-04-07T07:36:06.068Z,3.20
2023-04-07T07:39:02.949Z,3.40
2023-04-07T07:41:59.771Z,3.60
2023-04-07T07:44:56.658Z,3.80
2023-04-07T07:47:53.674Z,4.00
2023-04-07T07:50:52.410Z,4.10
2023-04-07T07:53:49.565Z,4.40
2023-04-07T07:56:46.610Z,4.50
2023-04-07T07:59:43.668Z,4.90
2023-04-07T08:02:40.769Z,5.40
2023-04-07T08:05:37.631Z,5.70
2023-04-07T08:08:34.451Z,6.40
2023-04-07T08:11:31.261Z,7.10
2023-04-07T08:14:28.144Z,7.70
2023-04-07T08:17:25.049Z,7.70
2023-04-07T08:20:22.799Z,7.70
2023-04-07T08:23:19.720Z,8.50
2023-04-07T08:26:16.657Z,9.50
2023-04-07T08:29:13.499Z,9.60
2023-04-07T08:32:10.758Z,9.90
2023-04-07T08:35:08.049Z,10.10
2023-04-07T08:38:05.743Z,10.10
2023-04-07T08:41:12.957Z,10.30
2023-04-07T08:44:11.408Z,10.60
2023-04-07T08:47:11.622Z,10.60
2023-04-07T08:50:11.233Z,10.90
2023-04-07T08:53:13.023Z,12.20
2023-04-07T08:56:12.229Z,11.90
2023-04-07T08:59:15.731Z,12.40
2023-04-07T09:02:12.806Z,12.90
2023-04-07T09:05:10.526Z,13.50
2023-04-07T09:08:07.472Z,13.10
2023-04-07T09:11:04.583Z,12.90
2023-04-07T09:14:01.800Z,13.20
2023-04-07T09:17:00.237Z,13.70
2023-04-07T09:20:01.037Z,14.00
2023-04-07T09:22:59.148Z,14.80
2023-04-07T09:25:56.064Z,15.00
2023-04-07T09:29:01.335Z,15.00
2023-04-07T09:31:58.263Z,15.00
2023-04-07T09:35:00.125Z,15.10
2023-04-07T09:38:10.136Z,14.60
2023-04-07T09:41:16.447Z,14.20
2023-04-07T09:44:13.617Z,14.80
2023-04-07T09:47:11.131Z,15.00
2023-04-07T09:50:08.262Z,15.70
2023-04-07T09:53:05.432Z,16.00
2023-04-07T09:56:02.818Z,16.10
2023-04-07T09:59:01.470Z,15.90
2023-04-07T10:01:59.478Z,16.30
2023-04-07T10:04:56.409Z,15.90
2023-04-07T10:07:54.502Z,15.80
2023-04-07T10:10:51.596Z,16.10
2023-04-07T10:13:48.886Z,16.20
2023-04-07T10:16:48.168Z,15.60
2023-04-07T10:19:48.089Z,16.50
2023-04-07T10:22:46.654Z,16.30
2023-04-07T10:25:46.081Z,15.90
2023-04-07T10:28:46.098Z,16.60
2023-04-07T10:31:43.124Z,17.20
2023-04-07T10:34:54.760Z,17.70
2023-04-07T10:38:06.960Z,18.00
2023-04-07T10:41:33.646Z,18.40
2023-04-07T10:44:46.875Z,18.40
2023-04-07T10:47:58.834Z,18.30
2023-04-07T10:51:10.626Z,17.40
2023-04-07T10:54:20.862Z,17.80
2023-04-07T10:57:18.159Z,17.90
2023-04-07T11:00:16.335Z,17.80
2023-04-07T11:03:14.189Z,17.80
2023-04-07T11:06:14.651Z,17.80
2023-04-07T11:09:21.238Z,18.10
2023-04-07T11:12:25.003Z,18.20
2023-04-07T11:15:23.241Z,17.30
2023-04-07T11:18:23.705Z,17.80
2023-04-07T11:21:20.574Z,17.50
2023-04-07T11:24:34.119Z,18.20
2023-04-07T11:27:30.962Z,16.80
2023-04-07T11:30:27.907Z,16.70
2023-04-07T11:33:32.225Z,17.10
2023-04-07T11:36:40.407Z,16.90
2023-04-07T11:39:37.586Z,17.20
2023-04-07T11:42:41.093Z,17.90
2023-04-07T11:45:37.922Z,18.90
2023-04-07T11:48:37.166Z,19.10
2023-04-07T11:51:34.067Z,18.60
2023-04-07T11:54:46.950Z,18.30
2023-04-07T11:57:43.778Z,17.60
2023-04-07T12:00:58.032Z,18.10
2023-04-07T12:04:01.901Z,18.70
2023-04-07T12:07:12.224Z,17.90
2023-04-07T12:10:20.369Z,18.20
2023-04-07T12:13:17.651Z,18.00
2023-04-07T12:16:14.504Z,18.20
2023-04-07T12:19:11.363Z,17.80
2023-04-07T12:22:08.220Z,17.50
2023-04-07T12:25:05.825Z,17.30
2023-04-07T12:28:03.021Z,17.20
2023-04-07T12:31:00.171Z,17.10
2023-04-07T12:33:57.029Z,16.90
2023-04-07T12:36:53.961Z,17.00
2023-04-07T12:39:50.986Z,16.30
2023-04-07T12:42:48.058Z,16.10
2023-04-07T12:45:44.955Z,17.00
2023-04-07T12:48:41.896Z,17.00
2023-04-07T12:51:40.108Z,17.50
2023-04-07T12:54:37.123Z,17.90
2023-04-07T12:57:33.943Z,18.30
2023-04-07T13:00:31.483Z,18.20
2023-04-07T13:03:28.538Z,17.50
2023-04-07T13:06:25.622Z,17.40
2023-04-07T13:09:22.461Z,16.90
2023-04-07T13:12:19.349Z,16.90
2023-04-07T13:15:16.417Z,16.70
2023-04-07T13:18:13.676Z,16.00
2023-04-07T13:21:42.551Z,15.50
2023-04-07T13:24:27.635Z,14.80
2023-04-07T13:27:24.507Z,14.50
2023-04-07T13:30:22.742Z,14.30
2023-04-07T13:33:19.858Z,14.20
2023-04-07T13:36:16.683Z,14.40
2023-04-07T13:39:13.679Z,15.10
2023-04-07T13:42:12.587Z,15.70
2023-04-07T13:45:10.631Z,16.40
2023-04-07T13:48:07.776Z,17.80
2023-04-07T13:51:04.713Z,17.70
2023-04-07T13:54:01.515Z,18.40
2023-04-07T13:56:58.464Z,17.90
2023-04-07T13:59:55.703Z,18.30
2023-04-07T14:02:52.700Z,18.50
2023-04-07T14:05:49.628Z,18.30
2023-04-07T14:08:46.449Z,18.70
2023-04-07T14:11:43.297Z,18.00
2023-04-07T14:14:40.195Z,17.90
2023-04-07T14:17:37.548Z,17.60
2023-04-07T14:20:34.447Z,18.40
2023-04-07T14:23:37.408Z,18.70
2023-04-07T14:26:34.710Z,19.30
2023-04-07T14:29:31.745Z,19.10
2023-04-07T14:32:29.756Z,18.00
2023-04-07T14:35:26.886Z,17.60
2023-04-07T14:38:25.719Z,16.90
2023-04-07T14:41:24.250Z,16.90
2023-04-07T14:44:21.348Z,17.10
2023-04-07T14:47:18.325Z,17.00
2023-04-07T14:50:15.135Z,16.40
2023-04-07T14:53:12.031Z,15.60
2023-04-07T14:56:08.931Z,14.90
2023-04-07T14:59:05.885Z,14.60
2023-04-07T15:02:02.810Z,14.60
2023-04-07T15:05:00.083Z,14.60
2023-04-07T15:07:57.379Z,14.30
2023-04-07T15:10:54.218Z,14.10
2023-04-07T15:13:51.278Z,14.00
2023-04-07T15:16:50.287Z,14.30
2023-04-07T15:19:47.676Z,14.20
2023-04-07T15:22:44.543Z,14.60
2023-04-07T15:25:41.347Z,15.10
2023-04-07T15:28:38.897Z,14.60
2023-04-07T15:31:35.825Z,14.20
2023-04-07T15:34:32.666Z,14.50
2023-04-07T15:37:29.472Z,13.80
2023-04-07T15:40:26.305Z,13.40
2023-04-07T15:43:23.637Z,13.20
2023-04-07T15:46:20.496Z,13.20
2023-04-07T15:49:23.136Z,13.20
2023-04-07T15:52:21.784Z,13.20
2023-04-07T15:55:18.888Z,13.20
2023-04-07T15:58:15.872Z,13.60
2023-04-07T16:01:13.018Z,13.60
2023-04-07T16:04:09.969Z,13.10
2023-04-07T16:07:06.901Z,13.10
2023-04-07T16:10:04.601Z,12.90
2023-04-07T16:13:01.410Z,13.00
2023-04-07T16:15:58.470Z,12.70
2023-04-07T16:18:55.407Z,12.50
2023-04-07T16:21:53.233Z,12.50
2023-04-07T16:24:50.074Z,12.30
2023-04-07T16:27:47.297Z,12.30
2023-04-07T16:30:44.122Z,12.20
2023-04-07T16:33:41.014Z,12.20
2023-04-07T16:36:38.101Z,12.40
2023-04-07T16:39:34.924Z,12.10
2023-04-07T16:42:31.969Z,11.90
2023-04-07T16:45:28.847Z,12.00
2023-04-07T16:48:26.292Z,11.60
2023-04-07T16:51:24.769Z,11.30
2023-04-07T16:54:21.606Z,11.20
2023-04-07T16:57:18.721Z,11.20
2023-04-07T17:00:16.189Z,11.00
2023-04-07T17:03:16.273Z,11.00
2023-04-07T17:06:13.345Z,11.00
2023-04-07T17:09:12.219Z,11.00
2023-04-07T17:12:09.103Z,10.80
2023-04-07T17:15:06.763Z,10.70
2023-04-07T17:18:03.929Z,10.60
2023-04-07T17:21:00.845Z,10.40
2023-04-07T17:23:57.999Z,10.60
2023-04-07T17:26:54.939Z,10.50
2023-04-07T17:29:51.771Z,10.50
2023-04-07T17:32:50.760Z,10.20
2023-04-07T17:35:49.874Z,10.30
2023-04-07T17:38:46.839Z,10.20
2023-04-07T17:41:43.889Z,9.90
2023-04-07T17:44:40.800Z,10.00
2023-04-07T17:47:37.753Z,10.10
2023-04-07T17:50:34.671Z,9.80
2023-04-07T17:53:32.801Z,9.60
2023-04-07T17:56:29.680Z,9.40
2023-04-07T17:59:26.509Z,9.30
2023-04-07T18:02:23.575Z,9.30
2023-04-07T18:05:21.067Z,9.30
2023-04-07T18:08:18.089Z,9.40
2023-04-07T18:11:16.191Z,9.10
2023-04-07T18:14:13.112Z,9.10
2023-04-07T18:17:10.895Z,8.80
2023-04-07T18:20:08.232Z,8.80
2023-04-07T18:23:05.767Z,8.80
2023-04-07T18:26:05.121Z,8.70
2023-04-07T18:29:02.054Z,8.70
2023-04-07T18:31:58.893Z,8.50
2023-04-07T18:34:55.814Z,8.40
2023-04-07T18:37:52.710Z,8.20
2023-04-07T18:40:50.568Z,8.00
2023-04-07T18:43:48.456Z,8.00
2023-04-07T18:46:46.409Z,7.60
2023-04-07T18:49:43.618Z,7.70
2023-04-07T18:52:40.650Z,7.50
2023-04-07T18:55:37.488Z,7.40
2023-04-07T18:58:35.702Z,7.20
2023-04-07T19:01:32.699Z,7.40
2023-04-07T19:04:29.567Z,7.30
2023-04-07T19:07:26.560Z,7.20
2023-04-07T19:10:23.590Z,7.10
2023-04-07T19:13:20.469Z,6.90
2023-04-07T19:16:17.715Z,7.20
2023-04-07T19:19:14.723Z,7.10
2023-04-07T19:22:12.499Z,7.20
2023-04-07T19:25:09.759Z,7.00
2023-04-07T19:28:06.769Z,7.10
2023-04-07T19:31:06.553Z,7.00
2023-04-07T19:34:03.363Z,7.00
2023-04-07T19:37:00.342Z,6.80
2023-04-07T19:40:02.857Z,6.80
2023-04-07T19:43:00.814Z,6.80
2023-04-07T19:45:58.005Z,6.80
2023-04-07T19:48:54.934Z,6.80
2023-04-07T19:51:54.123Z,6.50
2023-04-07T19:54:51.334Z,6.50
2023-04-07T19:57:48.679Z,6.40
2023-04-07T20:00:49.603Z,6.40
2023-04-07T20:03:46.805Z,6.00
2023-04-07T20:06:43.796Z,6.00
2023-04-07T20:09:40.611Z,6.00
2023-04-07T20:12:37.432Z,5.90
2023-04-07T20:15:34.314Z,5.70
2023-04-07T20:18:32.361Z,5.80
2023-04-07T20:21:29.305Z,5.70
2023-04-07T20:24:26.315Z,5.70
2023-04-07T20:27:23.133Z,5.70
2023-04-07T20:30:19.960Z,5.50
2023-04-07T20:33:16.966Z,5.20
2023-04-07T20:36:13.890Z,5.20
2023-04-07T20:39:11.053Z,5.10
2023-04-07T20:42:07.954Z,5.10
2023-04-07T20:45:06.420Z,5.20
2023-04-07T20:48:03.549Z,5.00
2023-04-07T20:51:01.301Z,5.00
2023-04-07T20:53:58.105Z,5.00
2023-04-07T20:56:55.044Z,4.90
2023-04-07T20:59:51.964Z,4.90
2023-04-07T21:02:49.309Z,4.90
2023-04-07T21:05:48.279Z,4.80
2023-04-07T21:08:45.097Z,4.70
2023-04-07T21:11:43.469Z,4.70
2023-04-07T21:14:40.406Z,4.60
2023-04-07T21:17:37.263Z,4.70
2023-04-07T21:20:37.238Z,4.60
2023-04-07T21:23:34.236Z,4.50
2023-04-07T21:26:31.099Z,4.50
2023-04-07T21:29:30.833Z,4.40
2023-04-07T21:32:27.759Z,4.40
2023-04-07T21:35:30.972Z,4.40
2023-04-07T21:38:28.132Z,4.40
2023-04-07T21:41:24.993Z,4.30
2023-04-07T21:44:22.567Z,4.10
2023-04-07T21:47:19.503Z,4.20
2023-04-07T21:50:16.865Z,4.30
2023-04-07T21:53:13.669Z,4.40
2023-04-07T21:56:10.877Z,4.40
2023-04-07T21:59:07.897Z,4.40
2023-04-07T22:02:04.890Z,4.40
2023-04-07T22:05:01.791Z,4.40
2023-04-07T22:07:58.740Z,4.50
2023-04-07T22:10:55.586Z,4.60
2023-04-07T22:13:52.406Z,4.40
2023-04-07T22:16:49.222Z,4.30
2023-04-07T22:19:46.453Z,4.10
2023-04-07T22:22:43.993Z,4.10
2023-04-07T22:25:41.029Z,4.00
2023-04-07T22:28:37.849Z,4.10
2023-04-07T22:31:34.778Z,4.00
2023-04-07T22:34:31.637Z,4.00
2023-04-07T22:37:28.456Z,4.00
2023-04-07T22:40:25.425Z,4.00
2023-04-07T22:43:22.407Z,4.10
2023-04-07T22:46:19.252Z,4.10
2023-04-07T22:49:16.700Z,4.00
2023-04-07T22:52:13.519Z,4.10
2023-04-07T22:55:10.477Z,4.40
2023-04-07T22:58:07.317Z,4.50
2023-04-07T23:01:04.330Z,4.60
2023-04-07T23:04:01.492Z,4.80
2023-04-07T23:06:58.435Z,4.90
2023-04-07T23:09:55.391Z,5.00
2023-04-07T23:12:54.034Z,5.00
2023-04-07T23:15:50.877Z,5.10
2023-04-07T23:18:47.843Z,5.10
2023-04-07T23:21:44.860Z,5.30
2023-04-07T23:24:42.166Z,5.30
2023-04-07T23:27:39.042Z,5.30
2023-04-07T23:30:37.357Z,5.30
2023-04-07T23:33:34.296Z,5.30
2023-04-07T23:36:31.477Z,5.30
2023-04-07T23:39:28.297Z,5.20
2023-04-07T23:42:25.264Z,5.30
2023-04-07T23:45:22.985Z,5.30
2023-04-07T23:48:19.818Z,5.30
2023-04-07T23:51:16.689Z,5.30
2023-04-07T23:54:13.947Z,5.30
2023-04-07T23:57:10.770Z,5.30
